Time;durP1;ratioP1;P1;durP2;ratioP2;P2;SDS_P1;SDS_P2;PMS_P1;PMS_P2;Temp;Humidity;BMP_temperature;BMP_pressure;BME280_temperature;BME280_humidity;BME280_pressure;Samples;Min_cycle;Max_cycle;Signal;HPM_P1;HPM_P2
2022/06/10 00:00:23;;;;;;;5.03;2.53;;;12.10;99.90;;;;;;5089379;28;20196;-72
2022/06/10 00:02:52;;;;;;;2.90;2.70;;;12.00;99.90;;;;;;5091873;28;20227;-71
2022/06/10 00:05:22;;;;;;;3.05;2.35;;;12.00;99.90;;;;;;5093469;28;20196;-71
2022/06/10 00:07:49;;;;;;;3.40;2.50;;;12.00;99.90;;;;;;5093542;28;20208;-71
2022/06/10 00:10:18;;;;;;;3.42;2.65;;;11.90;99.90;;;;;;5092889;28;20199;-72
2022/06/10 00:12:45;;;;;;;3.22;2.30;;;11.90;99.90;;;;;;5093403;28;20199;-72
2022/06/10 00:15:12;;;;;;;2.50;2.25;;;11.90;99.90;;;;;;5092843;28;20204;-72
2022/06/10 00:17:39;;;;;;;3.42;2.20;;;11.90;99.90;;;;;;5112314;28;20608;-72
2022/06/10 00:20:09;;;;;;;5.05;2.38;;;11.90;99.90;;;;;;5113162;28;20206;-73
2022/06/10 00:22:36;;;;;;;5.63;2.70;;;11.90;99.90;;;;;;5113072;28;20261;-73
2022/06/10 00:25:04;;;;;;;3.35;2.25;;;11.90;99.90;;;;;;5113708;28;20195;-72
2022/06/10 00:27:30;;;;;;;4.10;2.47;;;11.90;99.90;;;;;;5113578;28;20202;-72
2022/06/10 00:29:57;;;;;;;3.55;2.60;;;11.90;99.90;;;;;;5111925;28;20465;-72
2022/06/10 00:32:24;;;;;;;2.92;2.60;;;11.90;99.90;;;;;;5113437;28;20196;-72
2022/06/10 00:34:50;;;;;;;2.63;2.33;;;11.90;99.90;;;;;;5112771;28;20592;-73
2022/06/10 00:37:19;;;;;;;3.97;2.50;;;11.90;99.90;;;;;;5113476;28;20452;-72
2022/06/10 00:39:45;;;;;;;4.03;2.67;;;11.90;99.90;;;;;;5112611;28;20199;-72
2022/06/10 00:42:13;;;;;;;4.80;3.05;;;11.90;99.90;;;;;;5113044;28;20225;-72
2022/06/10 00:44:42;;;;;;;3.92;2.60;;;11.90;99.90;;;;;;5112922;28;20222;-72
2022/06/10 00:47:16;;;;;;;3.67;2.42;;;11.90;99.90;;;;;;5112441;28;20622;-73
2022/06/10 00:49:46;;;;;;;2.38;2.15;;;11.90;99.90;;;;;;5112206;28;20682;-72
2022/06/10 00:52:22;;;;;;;4.95;2.25;;;11.90;99.90;;;;;;5113223;28;20191;-72
2022/06/10 00:54:52;;;;;;;4.15;2.50;;;11.90;99.90;;;;;;5112647;28;20219;-72
2022/06/10 00:57:22;;;;;;;2.35;2.10;;;11.90;99.90;;;;;;5113046;28;20230;-72
2022/06/10 00:59:53;;;;;;;2.45;2.25;;;11.80;99.90;;;;;;5111495;28;20666;-71
2022/06/10 01:02:22;;;;;;;2.80;2.17;;;11.80;99.90;;;;;;5112179;28;20763;-73
2022/06/10 01:04:49;;;;;;;5.63;2.50;;;11.80;99.90;;;;;;5109504;28;20218;-72
2022/06/10 01:07:22;;;;;;;3.07;2.60;;;11.80;99.90;;;;;;5111409;28;20199;-74
2022/06/10 01:09:50;;;;;;;2.95;2.55;;;11.80;99.90;;;;;;5112040;28;20459;-73
2022/06/10 01:12:38;;;;;;;3.60;2.20;;;11.70;99.90;;;;;;5112248;28;20191;-72
2022/06/10 01:15:31;;;;;;;3.15;2.85;;;11.70;99.90;;;;;;5111897;28;20210;-72
2022/06/10 01:18:17;;;;;;;4.55;2.65;;;11.70;99.90;;;;;;5105293;28;20203;-73
2022/06/10 01:20:52;;;;;;;4.95;2.85;;;11.60;99.90;;;;;;5112423;28;20207;-73
2022/06/10 01:23:56;;;;;;;3.58;2.25;;;11.60;99.90;;;;;;5112344;28;20572;-72
2022/06/10 01:30:03;;;;;;;2.85;2.50;;;11.50;99.90;;;;;;5110431;28;20235;-72
2022/06/10 01:32:37;;;;;;;2.83;2.63;;;11.40;99.90;;;;;;5112457;28;20202;-72
2022/06/10 01:35:16;;;;;;;2.78;2.55;;;11.40;99.90;;;;;;5112127;28;20210;-72
2022/06/10 01:37:53;;;;;;;2.70;2.40;;;11.40;99.90;;;;;;5112620;28;20248;-71
2022/06/10 01:40:25;;;;;;;3.35;2.40;;;11.40;99.90;;;;;;5112218;28;20206;-72
2022/06/10 01:43:01;;;;;;;3.28;2.70;;;11.30;99.90;;;;;;5112325;28;20260;-72
2022/06/10 01:45:33;;;;;;;3.63;2.30;;;11.30;99.90;;;;;;5114537;28;20199;-73
2022/06/10 01:48:05;;;;;;;2.30;2.10;;;11.30;99.90;;;;;;5112201;28;20218;-74
2022/06/10 01:50:37;;;;;;;3.65;2.42;;;11.30;99.90;;;;;;5112606;28;20202;-72
2022/06/10 01:53:09;;;;;;;2.97;2.67;;;11.20;99.90;;;;;;5111249;28;20215;-72
2022/06/10 01:55:42;;;;;;;4.75;2.75;;;11.20;99.90;;;;;;5112128;28;20203;-72
2022/06/10 01:58:14;;;;;;;2.83;2.40;;;11.20;99.90;;;;;;5111559;28;20203;-72
2022/06/10 02:00:46;;;;;;;2.85;2.65;;;11.10;99.90;;;;;;5111853;28;20203;-71
2022/06/10 02:03:21;;;;;;;2.95;2.33;;;11.10;99.90;;;;;;5111742;28;20229;-71
2022/06/10 02:05:52;;;;;;;5.80;2.90;;;11.10;99.90;;;;;;5111716;28;20247;-72
2022/06/10 02:08:21;;;;;;;2.40;2.20;;;11.10;99.90;;;;;;5111620;28;20195;-72
2022/06/10 02:10:52;;;;;;;3.75;2.78;;;11.10;99.90;;;;;;5111708;28;20685;-73
2022/06/10 02:13:25;;;;;;;2.65;2.40;;;11.00;99.90;;;;;;5111921;28;20223;-73
2022/06/10 02:15:55;;;;;;;3.50;2.60;;;11.10;99.90;;;;;;5111695;28;20214;-73
2022/06/10 02:18:29;;;;;;;3.17;2.75;;;11.00;99.90;;;;;;5111438;28;20207;-72
2022/06/10 02:21:01;;;;;;;3.55;2.50;;;11.00;99.90;;;;;;5110438;28;20226;-72
2022/06/10 02:23:34;;;;;;;2.45;2.25;;;11.00;99.90;;;;;;5110217;28;20219;-73
2022/06/10 02:26:03;;;;;;;3.05;2.20;;;10.90;99.90;;;;;;5111391;28;20203;-72
2022/06/10 02:28:35;;;;;;;3.30;2.33;;;10.90;99.90;;;;;;5110587;28;20198;-73
2022/06/10 02:31:08;;;;;;;6.10;2.85;;;10.80;99.90;;;;;;5110779;28;20199;-74
2022/06/10 02:33:37;;;;;;;3.10;2.50;;;10.80;99.90;;;;;;5111079;28;20660;-73
2022/06/10 02:36:10;;;;;;;5.13;2.53;;;10.80;99.90;;;;;;5111395;28;20275;-72
2022/06/10 02:38:47;;;;;;;4.13;2.70;;;10.70;99.90;;;;;;5110667;28;20202;-74
2022/06/10 02:41:23;;;;;;;4.85;2.05;;;10.70;99.90;;;;;;5111338;28;20203;-72
2022/06/10 02:43:57;;;;;;;3.42;2.65;;;10.70;99.90;;;;;;5110864;28;20218;-73
2022/06/10 02:46:30;;;;;;;3.13;2.58;;;10.70;99.90;;;;;;5111152;28;20206;-72
2022/06/10 02:49:04;;;;;;;5.63;3.10;;;10.60;99.90;;;;;;5106554;28;20852;-72
2022/06/10 02:51:31;;;;;;;3.03;2.75;;;10.60;99.90;;;;;;5090938;28;20208;-73
2022/06/10 02:53:59;;;;;;;3.72;3.17;;;10.60;99.90;;;;;;5090918;28;20222;-73
2022/06/10 02:56:28;;;;;;;3.45;2.72;;;10.60;99.90;;;;;;5090525;28;20859;-73
2022/06/10 03:02:03;;;;;;;3.33;2.75;;;10.60;99.90;;;;;;5110999;28;20332;-73
2022/06/10 03:04:41;;;;;;;3.08;2.50;;;10.50;99.90;;;;;;5110897;28;20307;-72
2022/06/10 03:07:30;;;;;;;3.30;2.92;;;10.50;99.90;;;;;;5111052;28;20210;-72
2022/06/10 03:10:09;;;;;;;2.95;2.55;;;10.50;99.90;;;;;;5110097;28;20207;-71
2022/06/10 03:12:40;;;;;;;3.92;2.40;;;10.40;99.90;;;;;;5110766;28;20206;-71
2022/06/10 03:15:22;;;;;;;5.57;2.90;;;10.40;99.90;;;;;;5110772;28;20199;-72
2022/06/10 03:18:12;;;;;;;3.50;2.60;;;10.40;99.90;;;;;;5109582;28;20351;-72
2022/06/10 03:20:47;;;;;;;6.60;2.50;;;10.40;99.90;;;;;;5110504;28;20202;-72
2022/06/10 03:23:17;;;;;;;4.72;2.60;;;10.30;99.90;;;;;;5110661;28;20222;-72
2022/06/10 03:25:49;;;;;;;2.83;2.53;;;10.40;99.90;;;;;;5109256;28;20199;-74
2022/06/10 03:28:23;;;;;;;5.22;2.58;;;10.30;99.90;;;;;;5110089;28;20721;-72
2022/06/10 03:30:56;;;;;;;4.32;2.58;;;10.30;99.90;;;;;;5110403;28;20203;-75
2022/06/10 03:33:29;;;;;;;4.13;2.65;;;10.30;99.90;;;;;;5109201;28;20727;-72
2022/06/10 03:36:02;;;;;;;2.85;2.65;;;10.30;99.90;;;;;;5113183;22;20236;-92
2022/06/10 03:39:01;;;;;;;;;;;;;;;;;;;;;
2022/06/10 03:41:33;;;;;;;2.50;2.30;;;10.30;99.90;;;;;;5098758;28;20693;-92
2022/06/10 03:44:06;;;;;;;4.95;3.15;;;10.30;99.90;;;;;;5100640;28;20219;-92
2022/06/10 03:46:34;;;;;;;3.47;2.70;;;10.30;99.90;;;;;;5085285;28;20219;-93
2022/06/10 03:49:09;;;;;;;3.78;2.70;;;10.30;99.90;;;;;;5078062;28;20287;-92
2022/06/10 03:51:50;;;;;;;4.03;3.00;;;10.20;99.90;;;;;;5077894;28;20460;-92
2022/06/10 03:57:17;;;;;;;5.65;2.92;;;10.30;99.90;;;;;;5072394;28;20596;-94
2022/06/10 04:05:35;;;;;;;2.90;2.70;;;10.30;99.90;;;;;;5075762;28;20199;-94
2022/06/10 04:08:47;;;;;;;3.47;3.05;;;10.40;99.90;;;;;;5083911;28;20287;-94
2022/06/10 04:12:16;;;;;;;;;;;;;;;;;;;;;
2022/06/10 04:18:14;;;;;;;3.20;2.92;;;10.50;99.90;;;;;;4944490;28;20278;-93
2022/06/10 04:27:42;;;;;;;6.40;3.53;;;10.60;99.90;;;;;;5073136;23;20950;-70
2022/06/10 04:30:15;;;;;;;3.67;2.47;;;10.60;99.90;;;;;;5069535;28;20603;-70
2022/06/10 04:32:43;;;;;;;3.05;2.75;;;10.70;99.90;;;;;;5070318;28;20212;-69
2022/06/10 04:35:09;;;;;;;3.10;2.80;;;10.70;99.90;;;;;;5052988;28;20193;-70
2022/06/10 04:37:36;;;;;;;3.28;2.92;;;10.70;99.90;;;;;;5052583;28;20197;-70
2022/06/10 04:40:03;;;;;;;3.28;2.60;;;10.80;99.90;;;;;;5052245;28;20208;-69
2022/06/10 04:42:30;;;;;;;5.68;2.95;;;10.80;99.90;;;;;;5050121;28;20194;-71
2022/06/10 04:44:58;;;;;;;2.80;2.60;;;10.90;99.90;;;;;;5052185;28;20217;-71
2022/06/10 04:47:25;;;;;;;3.90;2.70;;;10.90;99.90;;;;;;5052248;28;20553;-70
2022/06/10 04:49:51;;;;;;;2.97;2.50;;;11.00;99.90;;;;;;5050451;28;20556;-70
2022/06/10 04:52:18;;;;;;;4.57;2.80;;;11.00;99.90;;;;;;5052368;28;20197;-70
2022/06/10 04:54:45;;;;;;;4.55;2.92;;;11.10;99.90;;;;;;5051609;28;20818;-70
2022/06/10 04:57:12;;;;;;;4.43;3.47;;;11.10;99.90;;;;;;5052241;28;20204;-70
2022/06/10 04:59:38;;;;;;;3.05;2.72;;;11.20;99.90;;;;;;5050427;28;20661;-70
2022/06/10 05:02:07;;;;;;;7.00;4.55;;;11.30;99.90;;;;;;5052140;28;20208;-70
2022/06/10 05:04:34;;;;;;;3.75;3.00;;;11.40;99.90;;;;;;5051748;28;20736;-70
2022/06/10 05:07:01;;;;;;;5.55;3.00;;;11.50;99.90;;;;;;5051842;28;20236;-70
2022/06/10 05:09:28;;;;;;;5.15;3.20;;;11.60;99.90;;;;;;5049431;28;20656;-70
2022/06/10 05:11:54;;;;;;;3.75;3.05;;;11.70;99.90;;;;;;5050603;28;20216;-69
2022/06/10 05:14:21;;;;;;;3.75;3.33;;;11.70;99.90;;;;;;5051781;28;20226;-69
2022/06/10 05:16:48;;;;;;;2.92;2.70;;;11.80;99.90;;;;;;5051477;28;20232;-70
2022/06/10 05:19:17;;;;;;;6.18;2.90;;;11.80;99.90;;;;;;5066172;28;20227;-70
2022/06/10 05:21:43;;;;;;;5.80;3.22;;;11.90;99.90;;;;;;5071757;28;20205;-69
2022/06/10 05:24:10;;;;;;;3.83;2.53;;;12.00;99.90;;;;;;5071523;28;20232;-70
2022/06/10 05:26:37;;;;;;;9.70;3.50;;;12.10;99.90;;;;;;5071765;28;20579;-70
2022/06/10 05:29:04;;;;;;;5.60;3.35;;;12.20;99.90;;;;;;5071083;28;20223;-70
2022/06/10 05:31:30;;;;;;;4.17;3.27;;;12.20;99.90;;;;;;5071673;28;20203;-70
2022/06/10 05:36:43;;;;;;;5.60;2.95;;;12.30;99.90;;;;;;5070597;28;20438;-69
2022/06/10 05:39:10;;;;;;;3.20;2.90;;;12.40;99.90;;;;;;5070719;28;20686;-69
2022/06/10 05:44:22;;;;;;;4.43;2.85;;;12.50;99.90;;;;;;5071346;28;20855;-70
2022/06/10 05:46:49;;;;;;;4.25;2.65;;;12.70;99.90;;;;;;5069792;28;20212;-70
2022/06/10 05:49:16;;;;;;;4.23;2.83;;;12.80;99.90;;;;;;5070518;28;20668;-70
2022/06/10 05:51:44;;;;;;;4.10;2.67;;;12.90;99.90;;;;;;5070631;28;20458;-69
2022/06/10 05:54:10;;;;;;;7.63;2.33;;;13.00;99.90;;;;;;5070910;28;20220;-70
2022/06/10 05:56:37;;;;;;;4.10;2.80;;;13.10;99.90;;;;;;5070813;28;20462;-70
2022/06/10 05:59:04;;;;;;;3.23;2.60;;;13.10;99.90;;;;;;5070663;28;20470;-69
2022/06/10 06:01:31;;;;;;;3.30;2.73;;;13.20;99.90;;;;;;5069389;28;20463;-70
2022/06/10 06:03:58;;;;;;;3.07;2.40;;;13.30;99.90;;;;;;5070541;28;20482;-69
2022/06/10 06:06:24;;;;;;;5.00;2.80;;;13.40;99.90;;;;;;5069891;28;20455;-70
2022/06/10 06:08:53;;;;;;;3.60;2.57;;;13.40;99.90;;;;;;5070100;28;20465;-70
2022/06/10 06:11:19;;;;;;;4.53;2.63;;;13.60;99.90;;;;;;5071168;28;20825;-70
2022/06/10 06:13:46;;;;;;;4.23;2.50;;;13.70;99.90;;;;;;5070068;28;20485;-70
2022/06/10 06:16:15;;;;;;;5.57;3.30;;;13.90;99.90;;;;;;5071098;28;20474;-70
2022/06/10 06:18:42;;;;;;;3.70;2.63;;;14.00;99.90;;;;;;5070106;28;20462;-70
2022/06/10 06:21:09;;;;;;;3.23;2.70;;;14.10;99.90;;;;;;5070999;28;20465;-69
2022/06/10 06:23:35;;;;;;;4.33;2.60;;;14.20;99.90;;;;;;5070622;28;21019;-70
2022/06/10 06:26:04;;;;;;;4.70;2.93;;;14.30;99.90;;;;;;5070584;28;20477;-71
2022/06/10 06:28:31;;;;;;;3.70;2.93;;;14.40;99.90;;;;;;5070328;28;20520;-70
2022/06/10 06:30:58;;;;;;;3.90;2.60;;;14.50;99.90;;;;;;5070194;28;20465;-71
2022/06/10 06:33:25;;;;;;;2.70;2.50;;;14.60;99.90;;;;;;5064797;28;20471;-70
2022/06/10 06:35:54;;;;;;;4.83;2.40;;;14.80;99.90;;;;;;5059368;28;20795;-68
2022/06/10 06:38:22;;;;;;;6.33;2.80;;;14.80;99.90;;;;;;5067276;28;20463;-70
2022/06/10 06:40:49;;;;;;;4.47;2.80;;;14.90;99.90;;;;;;5070046;28;20466;-70
2022/06/10 06:43:17;;;;;;;3.60;2.57;;;15.10;99.90;;;;;;5069864;28;20478;-71
2022/06/10 06:45:44;;;;;;;5.00;2.63;;;15.20;99.90;;;;;;5069965;28;20486;-71
2022/06/10 06:48:12;;;;;;;5.40;2.40;;;15.30;99.90;;;;;;5070089;28;20462;-71
2022/06/10 06:50:43;;;;;;;5.80;3.27;;;15.40;99.90;;;;;;5070451;28;20984;-70
2022/06/10 06:53:10;;;;;;;5.40;2.80;;;15.60;99.90;;;;;;5070234;28;20479;-71
2022/06/10 06:55:38;;;;;;;3.83;2.77;;;15.70;99.90;;;;;;5071037;28;20454;-70
2022/06/10 06:58:07;;;;;;;4.33;2.80;;;15.80;99.90;;;;;;5069710;28;20458;-70
2022/06/10 07:00:35;;;;;;;5.00;2.53;;;15.80;99.90;;;;;;5070682;28;20469;-70
2022/06/10 07:03:02;;;;;;;7.07;3.73;;;15.90;99.90;;;;;;5070088;28;20489;-70
2022/06/10 07:05:29;;;;;;;4.43;2.30;;;16.00;99.90;;;;;;5070450;28;20881;-71
2022/06/10 07:07:56;;;;;;;8.00;3.10;;;16.00;99.90;;;;;;5069814;28;20469;-71
2022/06/10 07:10:24;;;;;;;9.87;3.03;;;16.10;99.90;;;;;;5070213;28;21003;-69
2022/06/10 07:12:51;;;;;;;6.90;2.73;;;16.20;99.90;;;;;;5072461;28;20474;-70
2022/06/10 07:15:19;;;;;;;7.07;2.60;;;16.20;99.90;;;;;;5074465;28;20450;-70
2022/06/10 07:17:47;;;;;;;7.63;2.40;;;16.20;99.90;;;;;;5074274;28;20469;-71
2022/06/10 07:20:21;;;;;;;9.40;3.17;;;16.20;99.90;;;;;;5073769;28;20469;-70
2022/06/10 07:22:48;;;;;;;3.30;2.37;;;16.30;99.90;;;;;;5074128;28;20458;-69
2022/06/10 07:25:15;;;;;;;7.33;2.80;;;16.40;99.90;;;;;;5074061;28;20490;-71
2022/06/10 07:27:42;;;;;;;4.43;2.33;;;16.50;99.90;;;;;;5074059;28;20477;-71
2022/06/10 07:30:09;;;;;;;5.20;2.73;;;16.50;99.90;;;;;;5073594;28;20549;-72
2022/06/10 07:32:36;;;;;;;4.50;3.17;;;16.60;99.90;;;;;;5074134;28;20467;-70
2022/06/10 07:35:05;;;;;;;4.93;3.30;;;16.60;99.90;;;;;;5074103;28;20458;-71
2022/06/10 07:37:32;;;;;;;4.57;2.90;;;16.70;99.90;;;;;;5074179;28;20464;-70
2022/06/10 07:39:59;;;;;;;5.33;3.47;;;16.80;99.90;;;;;;5073266;28;20458;-70
2022/06/10 07:42:24;;;;;;;4.43;2.73;;;16.90;99.90;;;;;;5073767;28;20469;-71
2022/06/10 07:44:51;;;;;;;2.57;2.37;;;17.00;99.90;;;;;;5073541;28;20485;-70
2022/06/10 07:47:19;;;;;;;3.90;2.77;;;17.10;99.90;;;;;;5073823;28;20233;-70
2022/06/10 07:49:45;;;;;;;4.93;2.37;;;17.10;99.90;;;;;;5073029;28;20468;-70
2022/06/10 07:52:14;;;;;;;4.00;2.70;;;17.10;99.90;;;;;;5073664;28;20454;-71
2022/06/10 07:54:40;;;;;;;5.70;2.60;;;17.10;99.90;;;;;;5073510;28;20478;-70
2022/06/10 07:57:11;;;;;;;7.27;3.80;;;17.10;99.90;;;;;;5069721;28;20447;-71
2022/06/10 07:59:40;;;;;;;6.13;2.73;;;17.20;99.90;;;;;;5071867;28;20455;-70
2022/06/10 08:02:07;;;;;;;6.13;2.90;;;17.40;99.90;;;;;;5072518;28;20458;-69
2022/06/10 08:04:34;;;;;;;4.53;3.40;;;17.50;99.90;;;;;;5072076;28;20573;-70
2022/06/10 08:07:00;;;;;;;4.20;2.33;;;17.50;99.90;;;;;;5072619;28;20462;-70
2022/06/10 08:09:28;;;;;;;4.10;2.53;;;17.50;99.90;;;;;;5071520;28;20490;-71
2022/06/10 08:11:55;;;;;;;8.43;3.20;;;17.60;99.90;;;;;;5071462;28;20469;-71
2022/06/10 08:14:22;;;;;;;4.47;2.23;;;17.70;99.90;;;;;;5071233;28;20563;-70
2022/06/10 08:16:49;;;;;;;4.40;2.77;;;17.80;99.90;;;;;;5071615;28;20481;-70
2022/06/10 08:19:16;;;;;;;5.20;2.40;;;17.90;99.90;;;;;;5070964;28;20465;-71
2022/06/10 08:24:28;;;;;;;4.00;2.80;;;18.10;99.90;;;;;;5071557;28;20489;-69
2022/06/10 08:26:55;;;;;;;4.80;2.40;;;18.20;99.90;;;;;;5070231;28;20470;-70
2022/06/10 08:29:22;;;;;;;4.00;2.70;;;18.30;99.90;;;;;;5070853;28;20881;-71
2022/06/10 08:31:49;;;;;;;5.43;2.40;;;18.50;99.90;;;;;;5051242;28;20464;-69
2022/06/10 08:34:16;;;;;;;5.30;2.70;;;18.70;99.90;;;;;;5049926;28;20495;-71
2022/06/10 08:36:43;;;;;;;6.20;2.33;;;18.80;99.90;;;;;;5048649;28;20456;-71
2022/06/10 08:39:10;;;;;;;6.40;2.83;;;18.90;99.90;;;;;;5048690;28;20516;-70
2022/06/10 08:41:54;;;;;;;6.17;2.73;;;18.90;99.90;;;;;;5050587;28;20455;-70
2022/06/10 08:44:30;;;;;;;5.67;2.57;;;19.00;99.90;;;;;;5050742;28;20486;-71
2022/06/10 08:47:19;;;;;;;4.30;2.50;;;19.10;99.90;;;;;;5050599;28;20462;-71
2022/06/10 08:49:59;;;;;;;4.43;2.00;;;19.20;99.90;;;;;;5049171;28;20464;-71
2022/06/10 08:52:35;;;;;;;5.50;2.87;;;19.20;99.90;;;;;;5050827;28;20491;-71
2022/06/10 08:55:13;;;;;;;3.63;2.57;;;19.40;99.90;;;;;;5049925;28;20466;-70
2022/06/10 08:57:44;;;;;;;4.73;2.77;;;19.40;99.90;;;;;;5079843;28;20449;-71
2022/06/10 09:00:18;;;;;;;6.60;2.60;;;19.50;99.90;;;;;;5090332;28;20453;-71
2022/06/10 09:02:50;;;;;;;3.90;2.00;;;19.50;99.90;;;;;;5090075;28;20873;-71
2022/06/10 09:05:23;;;;;;;4.87;2.50;;;19.80;99.90;;;;;;5090493;28;20481;-71
2022/06/10 09:07:53;;;;;;;4.93;2.30;;;19.80;99.90;;;;;;5090631;28;20464;-72
2022/06/10 09:10:22;;;;;;;6.80;2.30;;;20.00;99.90;;;;;;5090025;28;20450;-71
2022/06/10 09:13:20;;;;;;;5.60;2.40;;;20.10;99.90;;;;;;5090366;28;20480;-70
2022/06/10 09:15:53;;;;;;;2.37;1.90;;;20.20;99.90;;;;;;5090242;28;20464;-70
2022/06/10 09:18:27;;;;;;;3.60;2.17;;;20.30;99.90;;;;;;5089697;28;20557;-72
2022/06/10 09:21:00;;;;;;;6.50;2.10;;;20.30;99.90;;;;;;5090288;28;20466;-71
2022/06/10 09:23:35;;;;;;;4.43;2.00;;;20.40;99.90;;;;;;5090173;28;20488;-71
2022/06/10 09:26:09;;;;;;;3.00;2.13;;;20.50;99.90;;;;;;5089509;28;20484;-71
2022/06/10 09:28:38;;;;;;;3.73;1.63;;;20.60;99.90;;;;;;5089511;28;20972;-70
2022/06/10 09:31:13;;;;;;;4.70;2.30;;;20.60;99.90;;;;;;5090313;28;20465;-70
2022/06/10 09:33:47;;;;;;;2.40;1.93;;;20.70;99.90;;;;;;5089486;28;20488;-71
2022/06/10 09:36:18;;;;;;;3.80;2.37;;;20.70;99.90;;;;;;5089717;28;20450;-71
2022/06/10 09:41:50;;;;;;;3.77;1.87;;;20.80;99.90;;;;;;4833294;22;20514;-69
2022/06/10 09:44:25;;;;;;;3.67;2.00;;;20.90;99.90;;;;;;5071055;28;20478;-69
2022/06/10 09:47:12;;;;;;;2.90;2.10;;;21.20;99.90;;;;;;5071704;28;20969;-69
2022/06/10 09:49:55;;;;;;;5.43;2.93;;;21.40;99.90;;;;;;5071071;28;20455;-69
2022/06/10 09:52:29;;;;;;;3.43;2.13;;;21.50;99.90;;;;;;5071139;28;20962;-70
2022/06/10 09:55:24;;;;;;;6.10;2.20;;;21.70;99.90;;;;;;5071333;28;20450;-69
2022/06/10 09:58:13;;;;;;;3.27;2.00;;;21.80;99.90;;;;;;5071571;28;20463;-69
2022/06/10 10:00:48;;;;;;;2.80;1.93;;;21.90;99.90;;;;;;5071200;28;20972;-67
2022/06/10 10:03:44;;;;;;;5.20;2.30;;;22.00;99.90;;;;;;5070716;28;20474;-69
2022/06/10 10:06:21;;;;;;;4.70;2.23;;;22.10;99.90;;;;;;5071391;28;21009;-70
2022/06/10 10:08:59;;;;;;;3.97;2.27;;;22.00;99.50;;;;;;5070614;28;20488;-68
2022/06/10 10:11:37;;;;;;;2.53;1.70;;;21.90;98.20;;;;;;5070842;28;20465;-70
2022/06/10 10:14:12;;;;;;;4.60;1.97;;;21.90;99.90;;;;;;5070723;28;20483;-70
2022/06/10 10:16:55;;;;;;;3.60;2.10;;;22.00;99.90;;;;;;5071106;28;20455;-70
2022/06/10 10:19:50;;;;;;;5.87;2.00;;;22.10;99.10;;;;;;5070175;28;20490;-70
2022/06/10 10:22:36;;;;;;;4.67;2.30;;;22.30;99.90;;;;;;5065734;28;20465;-68
2022/06/10 10:25:03;;;;;;;3.87;2.23;;;22.50;98.90;;;;;;5070647;28;20557;-69
2022/06/10 10:27:32;;;;;;;5.13;2.03;;;22.60;99.90;;;;;;5070903;28;20473;-69
2022/06/10 10:30:05;;;;;;;4.03;1.83;;;22.80;99.90;;;;;;5070891;28;21046;-70
2022/06/10 10:32:37;;;;;;;3.43;2.80;;;23.10;99.90;;;;;;5070424;28;20458;-69
2022/06/10 10:35:17;;;;;;;5.07;2.10;;;23.10;99.90;;;;;;5070516;28;20740;-70
2022/06/10 10:37:53;;;;;;;2.50;2.00;;;23.10;99.90;;;;;;5070770;28;20465;-70
2022/06/10 10:40:22;;;;;;;4.67;2.33;;;22.90;99.90;;;;;;5070043;28;20996;-70
2022/06/10 10:42:53;;;;;;;4.40;2.93;;;22.70;99.30;;;;;;5070977;28;20458;-70
2022/06/10 10:45:23;;;;;;;3.23;2.20;;;22.30;99.70;;;;;;5070109;28;20490;-70
2022/06/10 10:47:55;;;;;;;4.07;2.43;;;22.10;99.90;;;;;;5069206;28;20459;-68
2022/06/10 10:50:28;;;;;;;6.23;2.60;;;21.80;99.40;;;;;;5069769;28;20469;-69
2022/06/10 10:52:55;;;;;;;3.03;2.00;;;21.60;99.90;;;;;;5062470;28;20532;-70
2022/06/10 10:55:26;;;;;;;3.10;2.00;;;21.60;99.90;;;;;;5069991;28;20462;-69
2022/06/10 10:58:03;;;;;;;4.70;2.23;;;21.50;99.90;;;;;;5070587;28;20490;-67
2022/06/10 11:00:34;;;;;;;3.00;2.13;;;21.40;99.90;;;;;;5070522;28;20462;-70
2022/06/10 11:03:04;;;;;;;3.80;2.77;;;21.30;99.90;;;;;;5070129;28;20478;-70
2022/06/10 11:05:36;;;;;;;6.70;2.50;;;21.30;99.90;;;;;;5070331;28;20491;-70
2022/06/10 11:08:19;;;;;;;5.23;2.30;;;21.30;99.90;;;;;;5069595;28;20458;-70
2022/06/10 11:11:18;;;;;;;4.23;2.67;;;21.20;99.90;;;;;;5070477;28;20841;-69
2022/06/10 11:13:51;;;;;;;5.93;2.57;;;21.30;99.90;;;;;;5070091;28;20477;-70
2022/06/10 11:16:41;;;;;;;9.00;2.57;;;21.30;99.90;;;;;;5070246;28;20836;-69
2022/06/10 11:19:20;;;;;;;3.53;2.23;;;21.20;99.90;;;;;;5063142;28;20464;-69
2022/06/10 11:21:51;;;;;;;4.30;2.20;;;21.20;99.90;;;;;;5070256;28;20477;-69
2022/06/10 11:24:19;;;;;;;4.30;2.50;;;21.10;99.90;;;;;;5069823;28;20855;-69
2022/06/10 11:26:51;;;;;;;5.80;2.20;;;21.00;99.90;;;;;;5069848;28;21028;-69
2022/06/10 11:29:19;;;;;;;3.20;2.10;;;21.20;99.90;;;;;;5069597;28;20458;-70
2022/06/10 11:31:48;;;;;;;4.60;2.33;;;21.50;99.90;;;;;;5070002;28;20545;-73
2022/06/10 11:34:20;;;;;;;3.80;2.73;;;21.90;99.90;;;;;;5070073;28;20482;-74
2022/06/10 11:36:50;;;;;;;4.47;2.40;;;22.30;99.90;;;;;;5070056;28;20462;-74
2022/06/10 11:39:20;;;;;;;8.63;2.37;;;22.60;99.90;;;;;;5069758;28;20458;-74
2022/06/10 11:42:07;;;;;;;4.57;2.40;;;22.80;99.90;;;;;;5070279;28;20469;-73
2022/06/10 11:44:39;;;;;;;5.27;2.40;;;22.80;99.90;;;;;;5070040;28;20481;-73
2022/06/10 11:47:13;;;;;;;4.53;2.57;;;22.70;99.40;;;;;;5070186;28;20495;-74
2022/06/10 11:49:49;;;;;;;4.07;2.03;;;22.40;99.90;;;;;;5069745;28;20454;-74
2022/06/10 11:52:25;;;;;;;3.73;2.23;;;22.20;99.90;;;;;;5070250;28;20554;-74
2022/06/10 11:54:59;;;;;;;4.00;2.27;;;22.10;99.90;;;;;;5069677;28;20482;-74
2022/06/10 12:00:23;;;;;;;3.67;2.20;;;22.10;99.80;;;;;;5073077;28;20858;-70
2022/06/10 12:03:00;;;;;;;5.20;2.20;;;22.20;99.90;;;;;;5073365;28;20483;-71
2022/06/10 12:05:40;;;;;;;5.23;2.23;;;22.60;99.90;;;;;;5073204;28;20965;-71
2022/06/10 12:08:19;;;;;;;2.63;1.87;;;22.90;98.60;;;;;;5073114;28;20531;-71
2022/06/10 12:10:53;;;;;;;5.20;2.20;;;23.10;99.90;;;;;;5073216;28;20462;-70
2022/06/10 12:13:23;;;;;;;3.10;1.90;;;23.30;99.90;;;;;;5073107;28;20513;-71
2022/06/10 12:15:54;;;;;;;3.00;2.10;;;23.40;99.90;;;;;;5073238;28;20461;-73
2022/06/10 12:18:23;;;;;;;4.07;2.23;;;23.30;99.90;;;;;;5072640;28;20458;-73
2022/06/10 12:20:57;;;;;;;5.50;2.30;;;23.20;99.90;;;;;;5071283;28;20466;-73
2022/06/10 12:23:27;;;;;;;3.67;2.23;;;23.50;99.90;;;;;;5073258;28;20532;-72
2022/06/10 12:26:01;;;;;;;4.70;2.13;;;23.90;99.90;;;;;;5073059;28;20489;-72
2022/06/10 12:28:37;;;;;;;3.13;1.97;;;24.20;99.90;;;;;;5072482;28;20465;-68
2022/06/10 12:31:17;;;;;;;6.40;2.37;;;24.40;99.90;;;;;;5073112;28;20465;-70
2022/06/10 12:33:51;;;;;;;4.40;1.77;;;24.60;99.90;;;;;;5072626;28;20485;-67
2022/06/10 12:36:30;;;;;;;6.93;2.00;;;24.60;98.00;;;;;;5073317;28;20455;-70
2022/06/10 12:38:58;;;;;;;3.40;2.10;;;24.50;98.90;;;;;;5072228;28;21001;-73
2022/06/10 12:41:32;;;;;;;3.10;1.87;;;24.50;98.50;;;;;;5072929;28;20855;-73
2022/06/10 12:44:04;;;;;;;3.30;1.83;;;24.70;98.20;;;;;;5072760;28;20487;-72
2022/06/10 12:46:39;;;;;;;3.50;1.87;;;24.80;97.90;;;;;;5072623;28;20490;-72
2022/06/10 12:49:08;;;;;;;3.00;2.00;;;24.90;99.10;;;;;;5072406;28;20461;-73
2022/06/10 12:51:40;;;;;;;3.57;1.80;;;24.90;98.10;;;;;;5072546;28;20524;-68
2022/06/10 12:54:20;;;;;;;2.90;1.90;;;24.70;97.30;;;;;;5072721;28;20560;-70
2022/06/10 12:56:47;;;;;;;3.10;2.00;;;24.40;98.90;;;;;;5072015;28;20455;-69
2022/06/10 12:59:24;;;;;;;4.37;1.67;;;24.10;99.00;;;;;;5096214;28;20453;-72
2022/06/10 13:01:53;;;;;;;3.23;1.70;;;23.80;99.20;;;;;;5082618;28;20806;-74
2022/06/10 13:04:57;;;;;;;3.60;2.13;;;23.50;98.50;;;;;;5091750;28;20484;-72
2022/06/10 13:07:36;;;;;;;4.00;1.83;;;23.40;97.20;;;;;;5091932;28;20860;-72
2022/06/10 13:10:44;;;;;;;3.40;1.70;;;23.50;98.30;;;;;;5090303;28;20467;-74
2022/06/10 13:13:15;;;;;;;3.00;2.10;;;23.50;98.10;;;;;;5067804;28;20837;-69
2022/06/10 13:15:43;;;;;;;2.60;1.73;;;23.80;98.80;;;;;;5091161;28;20456;-73
2022/06/10 13:18:29;;;;;;;2.90;1.50;;;24.20;97.30;;;;;;5090295;28;20460;-74
2022/06/10 13:20:56;;;;;;;1.97;1.60;;;24.20;97.60;;;;;;5090921;28;20449;-70
2022/06/10 13:23:27;;;;;;;2.70;1.90;;;24.10;97.60;;;;;;5091370;28;20476;-69
2022/06/10 13:26:13;;;;;;;4.03;1.70;;;23.90;98.40;;;;;;5090860;28;20500;-71
2022/06/10 13:28:42;;;;;;;2.30;2.03;;;23.60;98.00;;;;;;5090372;28;20945;-70
2022/06/10 13:31:16;;;;;;;3.97;1.87;;;23.30;96.90;;;;;;5091361;28;20832;-71
2022/06/10 13:33:57;;;;;;;3.87;1.80;;;23.20;98.00;;;;;;5090295;28;20480;-71
2022/06/10 13:36:26;;;;;;;3.23;1.70;;;23.00;98.90;;;;;;5090616;28;20972;-71
2022/06/10 13:38:58;;;;;;;3.17;1.80;;;22.80;94.00;;;;;;5082064;28;20459;-69
2022/06/10 13:44:22;;;;;;;2.40;1.67;;;22.60;99.10;;;;;;5090591;28;20823;-75
2022/06/10 13:46:48;;;;;;;2.83;1.70;;;22.50;98.30;;;;;;5090931;28;20481;-74
2022/06/10 13:49:42;;;;;;;2.60;1.77;;;22.50;99.90;;;;;;5090434;28;20476;-75
2022/06/10 13:52:24;;;;;;;1.77;1.60;;;22.80;99.50;;;;;;5090564;28;20461;-73
2022/06/10 13:54:52;;;;;;;4.13;1.60;;;23.30;97.90;;;;;;5089195;28;20488;-75
2022/06/10 13:57:21;;;;;;;2.10;1.90;;;23.60;97.20;;;;;;5090111;28;20465;-70